sensor_id;sensor_type;location;lat;lon;timestamp;pressure;altitude;pressure_sealevel;temperature;humidity
49915;BME280;35806;47.958;13.158;2022-11-20T08:28:03;94203.60;;;4.27;62.69
49915;BME280;35806;47.958;13.158;2022-11-20T08:30:32;94207.99;;;4.57;60.44
49915;BME280;35806;47.958;13.158;2022-11-20T08:33:02;94201.64;;;4.61;58.74
49915;BME280;35806;47.958;13.158;2022-11-20T08:35:35;94200.72;;;5.21;59.04
49915;BME280;35806;47.958;13.158;2022-11-20T08:38:02;94201.90;;;5.29;56.87
49915;BME280;35806;47.958;13.158;2022-11-20T08:40:30;94197.67;;;5.76;56.49
49915;BME280;35806;47.958;13.158;2022-11-20T08:42:58;94197.14;;;5.48;56.87
49915;BME280;35806;47.958;13.158;2022-11-20T08:45:25;94201.36;;;5.54;56.63
49915;BME280;35806;47.958;13.158;2022-11-20T08:47:53;94202.72;;;5.71;56.66
49915;BME280;35806;47.958;13.158;2022-11-20T08:50:19;94208.51;;;5.99;56.66
49915;BME280;35806;47.958;13.158;2022-11-20T08:52:46;94208.26;;;5.48;55.57
49915;BME280;35806;47.958;13.158;2022-11-20T08:55:13;94210.98;;;6.03;57.44
49915;BME280;35806;47.958;13.158;2022-11-20T08:57:39;94215.85;;;6.02;58.13
49915;BME280;35806;47.958;13.158;2022-11-20T09:00:09;94214.14;;;6.33;56.02
49915;BME280;35806;47.958;13.158;2022-11-20T09:02:37;94215.19;;;6.16;56.94
49915;BME280;35806;47.958;13.158;2022-11-20T09:05:04;94214.31;;;6.16;56.10
49915;BME280;35806;47.958;13.158;2022-11-20T09:07:31;94213.78;;;5.90;54.58
49915;BME280;35806;47.958;13.158;2022-11-20T09:10:03;94213.29;;;5.55;54.65
49915;BME280;35806;47.958;13.158;2022-11-20T09:12:30;94212.41;;;5.37;58.49
49915;BME280;35806;47.958;13.158;2022-11-20T09:15:03;94210.29;;;5.60;57.10
49915;BME280;35806;47.958;13.158;2022-11-20T09:17:31;94208.09;;;6.46;56.93
49915;BME280;35806;47.958;13.158;2022-11-20T09:19:58;94205.63;;;6.44;54.57
49915;BME280;35806;47.958;13.158;2022-11-20T09:22:25;94209.04;;;6.25;55.18
49915;BME280;35806;47.958;13.158;2022-11-20T09:24:52;94196.96;;;6.10;53.38
49915;BME280;35806;47.958;13.158;2022-11-20T09:27:19;94201.23;;;6.02;54.68
49915;BME280;35806;47.958;13.158;2022-11-20T09:29:46;94204.34;;;6.28;54.48
49915;BME280;35806;47.958;13.158;2022-11-20T09:32:13;94207.14;;;6.48;55.09
49915;BME280;35806;47.958;13.158;2022-11-20T09:34:39;94210.90;;;5.35;53.80
49915;BME280;35806;47.958;13.158;2022-11-20T09:37:06;94210.14;;;4.66;56.86
49915;BME280;35806;47.958;13.158;2022-11-20T09:39:33;94212.42;;;5.41;55.60
49915;BME280;35806;47.958;13.158;2022-11-20T09:42:20;94202.62;;;5.40;56.98
49915;BME280;35806;47.958;13.158;2022-11-20T09:45:05;94201.94;;;5.60;56.22
49915;BME280;35806;47.958;13.158;2022-11-20T09:47:48;94205.19;;;5.72;56.87
49915;BME280;35806;47.958;13.158;2022-11-20T09:50:30;94202.24;;;5.58;54.05
49915;BME280;35806;47.958;13.158;2022-11-20T09:53:10;94196.10;;;5.59;54.25
49915;BME280;35806;47.958;13.158;2022-11-20T09:55:37;94197.64;;;5.73;55.41
49915;BME280;35806;47.958;13.158;2022-11-20T09:58:07;94194.01;;;6.26;54.40
49915;BME280;35806;47.958;13.158;2022-11-20T10:00:38;94189.02;;;6.51;56.02
49915;BME280;35806;47.958;13.158;2022-11-20T10:03:13;94189.58;;;6.46;53.01
49915;BME280;35806;47.958;13.158;2022-11-20T10:05:45;94188.65;;;6.57;53.21
49915;BME280;35806;47.958;13.158;2022-11-20T10:08:17;94188.96;;;6.43;51.24
49915;BME280;35806;47.958;13.158;2022-11-20T10:10:49;94183.77;;;6.21;50.19
49915;BME280;35806;47.958;13.158;2022-11-20T10:13:29;94180.21;;;6.54;49.42
49915;BME280;35806;47.958;13.158;2022-11-20T10:16:22;94178.18;;;5.88;49.51
49915;BME280;35806;47.958;13.158;2022-11-20T10:19:07;94177.30;;;5.74;53.11
49915;BME280;35806;47.958;13.158;2022-11-20T10:21:44;94174.21;;;6.16;51.01
49915;BME280;35806;47.958;13.158;2022-11-20T10:25:05;94175.51;;;6.83;52.30
49915;BME280;35806;47.958;13.158;2022-11-20T10:28:24;94170.20;;;7.09;50.17
49915;BME280;35806;47.958;13.158;2022-11-20T10:31:00;94170.48;;;6.59;49.22
49915;BME280;35806;47.958;13.158;2022-11-20T10:33:32;94165.79;;;6.39;50.41
49915;BME280;35806;47.958;13.158;2022-11-20T10:36:08;94170.25;;;7.00;47.93
49915;BME280;35806;47.958;13.158;2022-11-20T10:38:44;94161.87;;;7.04;48.28
49915;BME280;35806;47.958;13.158;2022-11-20T10:41:17;94168.08;;;6.74;47.51
49915;BME280;35806;47.958;13.158;2022-11-20T10:43:48;94166.88;;;6.49;49.56
49915;BME280;35806;47.958;13.158;2022-11-20T10:46:20;94165.56;;;6.67;47.92
49915;BME280;35806;47.958;13.158;2022-11-20T10:48:48;94167.43;;;6.33;50.41
49915;BME280;35806;47.958;13.158;2022-11-20T10:51:33;94163.59;;;6.86;50.77
49915;BME280;35806;47.958;13.158;2022-11-20T10:54:12;94163.53;;;5.65;52.08
49915;BME280;35806;47.958;13.158;2022-11-20T10:56:47;94161.10;;;6.08;48.49
49915;BME280;35806;47.958;13.158;2022-11-20T10:59:33;94154.93;;;5.25;52.45
49915;BME280;35806;47.958;13.158;2022-11-20T11:02:15;94154.13;;;6.71;50.07
49915;BME280;35806;47.958;13.158;2022-11-20T11:04:46;94152.42;;;6.22;50.81
49915;BME280;35806;47.958;13.158;2022-11-20T11:07:17;94151.29;;;6.08;47.26
49915;BME280;35806;47.958;13.158;2022-11-20T11:09:49;94145.84;;;5.59;49.14
49915;BME280;35806;47.958;13.158;2022-11-20T11:12:17;94144.63;;;7.27;47.58
49915;BME280;35806;47.958;13.158;2022-11-20T11:14:46;94139.71;;;6.50;49.97
49915;BME280;35806;47.958;13.158;2022-11-20T11:17:24;94134.29;;;6.69;48.59
49915;BME280;35806;47.958;13.158;2022-11-20T11:20:01;94131.67;;;7.19;48.24
49915;BME280;35806;47.958;13.158;2022-11-20T11:22:29;94132.54;;;5.59;45.87
49915;BME280;35806;47.958;13.158;2022-11-20T11:24:56;94128.52;;;6.11;47.79
49915;BME280;35806;47.958;13.158;2022-11-20T11:27:24;94132.06;;;7.00;48.02
49915;BME280;35806;47.958;13.158;2022-11-20T11:30:03;94133.26;;;6.73;47.46
49915;BME280;35806;47.958;13.158;2022-11-20T11:32:30;94130.41;;;6.42;48.51
49915;BME280;35806;47.958;13.158;2022-11-20T11:35:02;94129.17;;;6.35;46.84
49915;BME280;35806;47.958;13.158;2022-11-20T11:37:34;94133.83;;;6.90;48.31
49915;BME280;35806;47.958;13.158;2022-11-20T11:40:03;94127.48;;;6.55;46.04
49915;BME280;35806;47.958;13.158;2022-11-20T11:42:31;94128.12;;;7.17;47.10
49915;BME280;35806;47.958;13.158;2022-11-20T11:45:00;94124.79;;;7.38;47.27
49915;BME280;35806;47.958;13.158;2022-11-20T11:47:31;94124.88;;;7.63;44.65
49915;BME280;35806;47.958;13.158;2022-11-20T11:50:15;94120.49;;;7.62;46.80
49915;BME280;35806;47.958;13.158;2022-11-20T11:52:46;94122.45;;;7.71;48.33
49915;BME280;35806;47.958;13.158;2022-11-20T11:55:25;94122.21;;;7.12;45.50
49915;BME280;35806;47.958;13.158;2022-11-20T11:57:59;94117.41;;;7.35;46.75
49915;BME280;35806;47.958;13.158;2022-11-20T12:00:28;94117.26;;;7.19;44.40
49915;BME280;35806;47.958;13.158;2022-11-20T12:03:08;94113.96;;;7.41;45.32
49915;BME280;35806;47.958;13.158;2022-11-20T12:05:40;94113.42;;;7.65;45.46
49915;BME280;35806;47.958;13.158;2022-11-20T12:08:15;94107.86;;;7.81;46.08
49915;BME280;35806;47.958;13.158;2022-11-20T12:10:49;94109.58;;;7.77;45.21
49915;BME280;35806;47.958;13.158;2022-11-20T12:13:25;94106.17;;;7.37;44.95
49915;BME280;35806;47.958;13.158;2022-11-20T12:15:58;94103.07;;;6.93;44.99
49915;BME280;35806;47.958;13.158;2022-11-20T12:18:41;94100.91;;;7.68;44.44
49915;BME280;35806;47.958;13.158;2022-11-20T12:21:18;94093.96;;;7.61;43.66
49915;BME280;35806;47.958;13.158;2022-11-20T12:23:55;94093.87;;;7.60;42.41
49915;BME280;35806;47.958;13.158;2022-11-20T12:26:39;94091.89;;;7.47;42.06
49915;BME280;35806;47.958;13.158;2022-11-20T12:29:16;94090.13;;;7.57;43.79
49915;BME280;35806;47.958;13.158;2022-11-20T12:31:59;94093.28;;;6.95;42.36
49915;BME280;35806;47.958;13.158;2022-11-20T12:34:44;94087.33;;;6.79;43.60
49915;BME280;35806;47.958;13.158;2022-11-20T12:37:26;94080.46;;;7.52;44.04
49915;BME280;35806;47.958;13.158;2022-11-20T12:40:00;94078.40;;;7.10;43.98
49915;BME280;35806;47.958;13.158;2022-11-20T12:42:41;94082.75;;;6.95;41.82
49915;BME280;35806;47.958;13.158;2022-11-20T12:45:22;94080.82;;;7.15;43.74
49915;BME280;35806;47.958;13.158;2022-11-20T12:48:37;94081.70;;;7.24;41.86
49915;BME280;35806;47.958;13.158;2022-11-20T12:51:19;94079.47;;;8.23;43.97
49915;BME280;35806;47.958;13.158;2022-11-20T12:54:00;94082.66;;;6.82;41.53
49915;BME280;35806;47.958;13.158;2022-11-20T12:56:37;94076.74;;;7.19;42.05
49915;BME280;35806;47.958;13.158;2022-11-20T12:59:23;94080.14;;;7.17;42.49
49915;BME280;35806;47.958;13.158;2022-11-20T13:01:56;94077.46;;;6.60;46.17
49915;BME280;35806;47.958;13.158;2022-11-20T13:04:41;94073.27;;;5.34;41.94
49915;BME280;35806;47.958;13.158;2022-11-20T13:07:14;94074.55;;;6.15;44.47
49915;BME280;35806;47.958;13.158;2022-11-20T13:09:45;94073.38;;;6.69;43.13
49915;BME280;35806;47.958;13.158;2022-11-20T13:12:17;94070.13;;;6.95;43.72
49915;BME280;35806;47.958;13.158;2022-11-20T13:14:55;94070.11;;;6.73;45.82
49915;BME280;35806;47.958;13.158;2022-11-20T13:17:32;94068.41;;;6.76;41.99
49915;BME280;35806;47.958;13.158;2022-11-20T13:20:06;94065.04;;;6.61;44.20
49915;BME280;35806;47.958;13.158;2022-11-20T13:22:44;94065.20;;;6.81;43.26
49915;BME280;35806;47.958;13.158;2022-11-20T13:25:23;94057.50;;;6.39;43.02
49915;BME280;35806;47.958;13.158;2022-11-20T13:27:50;94057.36;;;6.47;44.95
49915;BME280;35806;47.958;13.158;2022-11-20T13:30:19;94056.90;;;7.22;44.42
49915;BME280;35806;47.958;13.158;2022-11-20T13:32:52;94058.94;;;6.04;43.25
49915;BME280;35806;47.958;13.158;2022-11-20T13:35:29;94056.29;;;6.97;43.13
49915;BME280;35806;47.958;13.158;2022-11-20T13:38:03;94053.38;;;6.84;43.53
49915;BME280;35806;47.958;13.158;2022-11-20T13:40:31;94057.63;;;7.35;43.60
49915;BME280;35806;47.958;13.158;2022-11-20T13:43:10;94057.75;;;7.34;44.53
49915;BME280;35806;47.958;13.158;2022-11-20T13:45:53;94053.90;;;7.55;44.35
49915;BME280;35806;47.958;13.158;2022-11-20T13:48:22;94053.91;;;6.97;42.71
49915;BME280;35806;47.958;13.158;2022-11-20T13:50:59;94049.16;;;7.66;44.41
49915;BME280;35806;47.958;13.158;2022-11-20T13:53:48;94049.50;;;7.49;44.32
49915;BME280;35806;47.958;13.158;2022-11-20T13:56:36;94050.31;;;6.86;45.11
49915;BME280;35806;47.958;13.158;2022-11-20T13:59:27;94051.29;;;7.06;44.46
49915;BME280;35806;47.958;13.158;2022-11-20T14:01:58;94046.28;;;6.90;44.60
49915;BME280;35806;47.958;13.158;2022-11-20T14:04:30;94046.08;;;7.48;44.39
49915;BME280;35806;47.958;13.158;2022-11-20T14:06:59;94043.49;;;6.97;43.70
49915;BME280;35806;47.958;13.158;2022-11-20T14:09:28;94047.95;;;7.08;44.45
49915;BME280;35806;47.958;13.158;2022-11-20T14:11:56;94045.95;;;6.76;45.24
49915;BME280;35806;47.958;13.158;2022-11-20T14:14:24;94047.53;;;7.50;45.07
49915;BME280;35806;47.958;13.158;2022-11-20T14:16:53;94044.25;;;6.74;44.78
49915;BME280;35806;47.958;13.158;2022-11-20T14:19:26;94043.66;;;6.36;46.74
49915;BME280;35806;47.958;13.158;2022-11-20T14:21:55;94046.16;;;6.32;46.04
49915;BME280;35806;47.958;13.158;2022-11-20T14:24:33;94043.77;;;7.05;46.58
49915;BME280;35806;47.958;13.158;2022-11-20T14:27:00;94046.99;;;5.39;47.25
49915;BME280;35806;47.958;13.158;2022-11-20T14:29:32;94045.66;;;4.70;49.68
49915;BME280;35806;47.958;13.158;2022-11-20T14:32:01;94043.71;;;5.30;50.14
49915;BME280;35806;47.958;13.158;2022-11-20T14:34:32;94048.34;;;4.51;50.37
49915;BME280;35806;47.958;13.158;2022-11-20T14:37:05;94048.44;;;4.14;52.70
49915;BME280;35806;47.958;13.158;2022-11-20T14:39:35;94050.21;;;4.17;53.46
49915;BME280;35806;47.958;13.158;2022-11-20T14:42:10;94052.56;;;4.29;52.47
49915;BME280;35806;47.958;13.158;2022-11-20T14:44:42;94052.66;;;4.97;53.39
49915;BME280;35806;47.958;13.158;2022-11-20T14:47:12;94059.75;;;4.46;50.79
49915;BME280;35806;47.958;13.158;2022-11-20T14:49:40;94058.47;;;4.22;52.34
49915;BME280;35806;47.958;13.158;2022-11-20T14:52:13;94061.64;;;5.11;50.33
49915;BME280;35806;47.958;13.158;2022-11-20T14:54:45;94064.37;;;4.43;51.95
49915;BME280;35806;47.958;13.158;2022-11-20T14:57:23;94077.45;;;3.42;53.32
49915;BME280;35806;47.958;13.158;2022-11-20T14:59:50;94084.54;;;3.20;55.53
49915;BME280;35806;47.958;13.158;2022-11-20T15:02:17;94088.27;;;3.16;56.78
49915;BME280;35806;47.958;13.158;2022-11-20T15:04:46;94086.67;;;3.20;57.06
49915;BME280;35806;47.958;13.158;2022-11-20T15:07:23;94078.00;;;3.97;56.72
49915;BME280;35806;47.958;13.158;2022-11-20T15:10:01;94083.71;;;3.40;56.29
49915;BME280;35806;47.958;13.158;2022-11-20T15:12:29;94086.34;;;3.12;57.38
49915;BME280;35806;47.958;13.158;2022-11-20T15:14:57;94086.18;;;3.32;56.10
49915;BME280;35806;47.958;13.158;2022-11-20T15:17:25;94092.55;;;3.10;58.13
49915;BME280;35806;47.958;13.158;2022-11-20T15:19:52;94088.19;;;2.81;58.54
49915;BME280;35806;47.958;13.158;2022-11-20T15:22:20;94091.58;;;2.63;60.16
49915;BME280;35806;47.958;13.158;2022-11-20T15:24:47;94092.23;;;2.51;61.33
49915;BME280;35806;47.958;13.158;2022-11-20T15:27:14;94092.55;;;2.19;62.16
49915;BME280;35806;47.958;13.158;2022-11-20T15:29:41;94098.39;;;2.23;64.07
49915;BME280;35806;47.958;13.158;2022-11-20T15:32:08;94095.92;;;2.32;63.65
49915;BME280;35806;47.958;13.158;2022-11-20T15:34:36;94122.28;;;1.47;67.96
49915;BME280;35806;47.958;13.158;2022-11-20T15:37:03;94118.68;;;0.79;72.30
49915;BME280;35806;47.958;13.158;2022-11-20T15:39:30;94120.47;;;1.02;71.75
49915;BME280;35806;47.958;13.158;2022-11-20T15:41:57;94110.50;;;1.49;72.13
49915;BME280;35806;47.958;13.158;2022-11-20T15:44:23;94107.72;;;1.53;71.04
49915;BME280;35806;47.958;13.158;2022-11-20T15:46:50;94103.23;;;2.05;69.91
49915;BME280;35806;47.958;13.158;2022-11-20T15:49:18;94105.09;;;2.31;69.19
49915;BME280;35806;47.958;13.158;2022-11-20T15:51:47;94120.44;;;2.00;69.90
49915;BME280;35806;47.958;13.158;2022-11-20T15:54:15;94101.52;;;2.46;69.27
49915;BME280;35806;47.958;13.158;2022-11-20T15:56:43;94101.78;;;2.45;68.99
49915;BME280;35806;47.958;13.158;2022-11-20T15:59:10;94105.08;;;2.37;68.21
49915;BME280;35806;47.958;13.158;2022-11-20T16:01:37;94104.96;;;2.39;68.02
49915;BME280;35806;47.958;13.158;2022-11-20T16:04:07;94102.39;;;2.87;67.87
49915;BME280;35806;47.958;13.158;2022-11-20T16:06:36;94098.10;;;2.22;68.82
49915;BME280;35806;47.958;13.158;2022-11-20T16:09:03;94095.40;;;2.64;68.10
49915;BME280;35806;47.958;13.158;2022-11-20T16:11:29;94091.42;;;3.20;66.48
49915;BME280;35806;47.958;13.158;2022-11-20T16:13:56;94090.00;;;3.34;65.56
49915;BME280;35806;47.958;13.158;2022-11-20T16:16:27;94078.33;;;3.31;65.39
49915;BME280;35806;47.958;13.158;2022-11-20T16:18:55;94077.38;;;3.46;64.63
49915;BME280;35806;47.958;13.158;2022-11-20T16:21:23;94073.91;;;3.35;64.53
49915;BME280;35806;47.958;13.158;2022-11-20T16:23:50;94072.62;;;3.11;63.46
49915;BME280;35806;47.958;13.158;2022-11-20T16:26:18;94068.75;;;3.60;63.84
49915;BME280;35806;47.958;13.158;2022-11-20T16:28:45;94071.24;;;2.89;63.70
49915;BME280;35806;47.958;13.158;2022-11-20T16:31:13;94068.39;;;3.78;64.57
49915;BME280;35806;47.958;13.158;2022-11-20T16:33:41;94070.84;;;3.36;64.71
49915;BME280;35806;47.958;13.158;2022-11-20T16:36:09;94066.58;;;2.49;66.36
49915;BME280;35806;47.958;13.158;2022-11-20T16:38:36;94062.89;;;2.94;65.21
49915;BME280;35806;47.958;13.158;2022-11-20T16:41:04;94060.13;;;3.46;65.44
49915;BME280;35806;47.958;13.158;2022-11-20T16:43:33;94056.63;;;3.03;64.61
49915;BME280;35806;47.958;13.158;2022-11-20T16:46:04;94055.30;;;3.60;63.68
49915;BME280;35806;47.958;13.158;2022-11-20T16:48:31;94055.79;;;3.47;63.53
49915;BME280;35806;47.958;13.158;2022-11-20T16:50:58;94061.42;;;3.44;62.59
49915;BME280;35806;47.958;13.158;2022-11-20T16:53:25;94066.65;;;4.02;62.71
49915;BME280;35806;47.958;13.158;2022-11-20T16:55:53;94063.31;;;3.44;62.27
49915;BME280;35806;47.958;13.158;2022-11-20T16:58:20;94060.38;;;4.69;62.27
49915;BME280;35806;47.958;13.158;2022-11-20T17:00:47;94064.74;;;3.61;62.50
49915;BME280;35806;47.958;13.158;2022-11-20T17:03:13;94055.65;;;4.37;60.94
49915;BME280;35806;47.958;13.158;2022-11-20T17:05:40;94055.28;;;4.03;61.61
49915;BME280;35806;47.958;13.158;2022-11-20T17:08:07;94055.75;;;4.40;60.58
49915;BME280;35806;47.958;13.158;2022-11-20T17:10:35;94059.35;;;4.44;60.72
49915;BME280;35806;47.958;13.158;2022-11-20T17:13:01;94063.65;;;4.49;59.95
49915;BME280;35806;47.958;13.158;2022-11-20T17:15:28;94060.67;;;4.40;60.36
49915;BME280;35806;47.958;13.158;2022-11-20T17:17:55;94064.52;;;4.39;59.97
49915;BME280;35806;47.958;13.158;2022-11-20T17:20:22;94061.03;;;4.32;60.10
49915;BME280;35806;47.958;13.158;2022-11-20T17:22:48;94061.98;;;4.37;60.07
49915;BME280;35806;47.958;13.158;2022-11-20T17:25:15;94066.37;;;4.78;60.39
49915;BME280;35806;47.958;13.158;2022-11-20T17:27:43;94062.59;;;3.96;60.70
49915;BME280;35806;47.958;13.158;2022-11-20T17:30:10;94063.03;;;4.07;59.49
49915;BME280;35806;47.958;13.158;2022-11-20T17:32:37;94064.36;;;3.79;60.24
49915;BME280;35806;47.958;13.158;2022-11-20T17:35:05;94064.21;;;4.42;59.68
49915;BME280;35806;47.958;13.158;2022-11-20T17:37:32;94066.72;;;4.63;59.20
49915;BME280;35806;47.958;13.158;2022-11-20T17:39:59;94065.05;;;4.69;58.68
49915;BME280;35806;47.958;13.158;2022-11-20T17:42:26;94065.73;;;4.83;58.71
49915;BME280;35806;47.958;13.158;2022-11-20T17:44:53;94061.81;;;4.91;59.49
49915;BME280;35806;47.958;13.158;2022-11-20T17:47:20;94064.72;;;5.42;57.29
49915;BME280;35806;47.958;13.158;2022-11-20T17:49:47;94064.88;;;5.03;57.37
49915;BME280;35806;47.958;13.158;2022-11-20T17:52:18;94062.06;;;4.60;58.65
49915;BME280;35806;47.958;13.158;2022-11-20T17:54:45;94064.99;;;4.57;58.37
49915;BME280;35806;47.958;13.158;2022-11-20T17:57:12;94059.39;;;5.10;57.84
49915;BME280;35806;47.958;13.158;2022-11-20T17:59:39;94055.01;;;4.69;58.27
49915;BME280;35806;47.958;13.158;2022-11-20T18:02:06;94055.12;;;4.95;57.73
49915;BME280;35806;47.958;13.158;2022-11-20T18:04:33;94058.11;;;5.06;57.27
49915;BME280;35806;47.958;13.158;2022-11-20T18:07:00;94064.27;;;4.41;57.61
49915;BME280;35806;47.958;13.158;2022-11-20T18:09:27;94063.76;;;4.83;57.72
49915;BME280;35806;47.958;13.158;2022-11-20T18:11:55;94065.03;;;4.76;57.59
49915;BME280;35806;47.958;13.158;2022-11-20T18:14:22;94063.92;;;4.99;56.95
49915;BME280;35806;47.958;13.158;2022-11-20T18:16:51;94066.45;;;4.67;58.08
49915;BME280;35806;47.958;13.158;2022-11-20T18:19:22;94066.48;;;4.45;58.03
49915;BME280;35806;47.958;13.158;2022-11-20T18:21:49;94064.11;;;5.05;57.35
49915;BME280;35806;47.958;13.158;2022-11-20T18:24:17;94063.14;;;4.50;57.71
49915;BME280;35806;47.958;13.158;2022-11-20T18:26:44;94057.20;;;4.27;58.05
49915;BME280;35806;47.958;13.158;2022-11-20T18:29:13;94053.78;;;4.08;58.20
49915;BME280;35806;47.958;13.158;2022-11-20T18:31:40;94056.99;;;4.54;57.68
49915;BME280;35806;47.958;13.158;2022-11-20T18:34:08;94057.05;;;4.71;57.48
49915;BME280;35806;47.958;13.158;2022-11-20T18:36:35;94052.55;;;4.08;57.95
49915;BME280;35806;47.958;13.158;2022-11-20T18:39:03;94055.97;;;3.93;58.39
49915;BME280;35806;47.958;13.158;2022-11-20T18:41:31;94052.00;;;4.00;58.33
49915;BME280;35806;47.958;13.158;2022-11-20T18:43:58;94055.42;;;3.67;58.30
49915;BME280;35806;47.958;13.158;2022-11-20T18:46:26;94050.85;;;4.14;57.69
49915;BME280;35806;47.958;13.158;2022-11-20T18:48:53;94050.30;;;4.15;57.38
49915;BME280;35806;47.958;13.158;2022-11-20T18:51:19;94048.24;;;3.72;57.34
49915;BME280;35806;47.958;13.158;2022-11-20T18:53:46;94055.60;;;3.55;57.79
49915;BME280;35806;47.958;13.158;2022-11-20T18:56:13;94055.93;;;3.38;58.83
49915;BME280;35806;47.958;13.158;2022-11-20T18:58:40;94051.94;;;3.81;58.21
49915;BME280;35806;47.958;13.158;2022-11-20T19:01:07;94050.96;;;3.57;58.51
49915;BME280;35806;47.958;13.158;2022-11-20T19:03:34;94047.83;;;3.50;58.78
49915;BME280;35806;47.958;13.158;2022-11-20T19:06:01;94045.15;;;3.44;58.89
49915;BME280;35806;47.958;13.158;2022-11-20T19:08:28;94043.12;;;3.69;58.84
49915;BME280;35806;47.958;13.158;2022-11-20T19:10:55;94046.64;;;2.74;59.83
49915;BME280;35806;47.958;13.158;2022-11-20T19:13:31;94043.23;;;2.01;60.96
49915;BME280;35806;47.958;13.158;2022-11-20T19:16:01;94036.17;;;2.79;59.87
49915;BME280;35806;47.958;13.158;2022-11-20T19:18:28;94031.80;;;3.50;58.19
49915;BME280;35806;47.958;13.158;2022-11-20T19:20:55;94023.39;;;4.09;57.53
49915;BME280;35806;47.958;13.158;2022-11-20T19:23:23;94020.42;;;4.04;57.44
49915;BME280;35806;47.958;13.158;2022-11-20T19:25:50;94018.93;;;3.74;57.63
49915;BME280;35806;47.958;13.158;2022-11-20T19:28:17;94018.32;;;3.93;57.91
49915;BME280;35806;47.958;13.158;2022-11-20T19:30:44;94014.01;;;3.90;57.94
49915;BME280;35806;47.958;13.158;2022-11-20T19:33:10;94009.64;;;3.86;57.84
49915;BME280;35806;47.958;13.158;2022-11-20T19:35:37;94008.23;;;3.57;57.84
49915;BME280;35806;47.958;13.158;2022-11-20T19:38:04;94009.01;;;3.38;58.06
49915;BME280;35806;47.958;13.158;2022-11-20T19:40:31;94005.13;;;3.64;57.88
49915;BME280;35806;47.958;13.158;2022-11-20T19:42:58;94006.48;;;3.29;57.92
49915;BME280;35806;47.958;13.158;2022-11-20T19:45:25;94002.10;;;2.83;58.40
49915;BME280;35806;47.958;13.158;2022-11-20T19:47:52;93999.51;;;3.43;57.09
49915;BME280;35806;47.958;13.158;2022-11-20T19:50:19;93993.62;;;2.84;58.00
49915;BME280;35806;47.958;13.158;2022-11-20T19:52:46;93990.54;;;2.82;58.15
49915;BME280;35806;47.958;13.158;2022-11-20T19:55:13;93986.13;;;3.05;57.69
49915;BME280;35806;47.958;13.158;2022-11-20T19:57:40;93987.80;;;3.00;57.79
49915;BME280;35806;47.958;13.158;2022-11-20T20:00:08;93983.02;;;3.14;57.94
49915;BME280;35806;47.958;13.158;2022-11-20T20:02:35;93980.06;;;2.08;59.21
49915;BME280;35806;47.958;13.158;2022-11-20T20:05:03;93980.48;;;3.22;57.10
49915;BME280;35806;47.958;13.158;2022-11-20T20:07:30;93980.83;;;2.86;57.37
49915;BME280;35806;47.958;13.158;2022-11-20T20:09:58;93978.16;;;2.56;57.60
49915;BME280;35806;47.958;13.158;2022-11-20T20:12:25;93979.45;;;3.37;56.72
49915;BME280;35806;47.958;13.158;2022-11-20T20:14:52;93975.97;;;2.78;57.12
49915;BME280;35806;47.958;13.158;2022-11-20T20:17:19;93974.46;;;2.58;57.41
49915;BME280;35806;47.958;13.158;2022-11-20T20:19:46;93971.18;;;2.40;57.69
49915;BME280;35806;47.958;13.158;2022-11-20T20:22:13;93969.51;;;2.61;58.31
49915;BME280;35806;47.958;13.158;2022-11-20T20:24:40;93963.79;;;3.06;57.39
49915;BME280;35806;47.958;13.158;2022-11-20T20:27:07;93964.08;;;1.35;59.38
49915;BME280;35806;47.958;13.158;2022-11-20T20:29:34;93961.42;;;2.61;57.89
49915;BME280;35806;47.958;13.158;2022-11-20T20:32:00;93961.24;;;1.76;59.18
49915;BME280;35806;47.958;13.158;2022-11-20T20:34:27;93961.02;;;2.12;58.19
49915;BME280;35806;47.958;13.158;2022-11-20T20:36:55;93956.38;;;2.22;57.55
49915;BME280;35806;47.958;13.158;2022-11-20T20:39:23;93951.77;;;2.64;57.02
49915;BME280;35806;47.958;13.158;2022-11-20T20:41:54;93955.41;;;2.08;57.92
49915;BME280;35806;47.958;13.158;2022-11-20T20:44:21;93950.39;;;2.38;57.41
49915;BME280;35806;47.958;13.158;2022-11-20T20:46:50;93949.49;;;3.04;56.81
49915;BME280;35806;47.958;13.158;2022-11-20T20:49:18;93948.58;;;2.97;56.97
49915;BME280;35806;47.958;13.158;2022-11-20T20:51:45;93947.76;;;2.66;57.09
49915;BME280;35806;47.958;13.158;2022-11-20T20:54:12;93949.56;;;0.88;58.85
49915;BME280;35806;47.958;13.158;2022-11-20T20:56:39;93946.79;;;1.40;58.10
49915;BME280;35806;47.958;13.158;2022-11-20T20:59:06;93946.89;;;1.38;58.05
49915;BME280;35806;47.958;13.158;2022-11-20T21:01:34;93940.04;;;2.22;57.25
49915;BME280;35806;47.958;13.158;2022-11-20T21:04:02;93937.90;;;1.52;58.42
49915;BME280;35806;47.958;13.158;2022-11-20T21:06:28;93943.70;;;1.64;58.21
49915;BME280;35806;47.958;13.158;2022-11-20T21:08:55;93946.26;;;1.59;58.41
49915;BME280;35806;47.958;13.158;2022-11-20T21:11:22;93945.38;;;2.51;57.22
49915;BME280;35806;47.958;13.158;2022-11-20T21:13:49;93947.40;;;1.84;58.15
49915;BME280;35806;47.958;13.158;2022-11-20T21:16:18;93945.08;;;1.05;59.03
49915;BME280;35806;47.958;13.158;2022-11-20T21:18:46;93942.66;;;1.31;58.77
49915;BME280;35806;47.958;13.158;2022-11-20T21:21:15;93937.80;;;2.40;57.50
49915;BME280;35806;47.958;13.158;2022-11-20T21:23:45;93934.30;;;2.21;57.19
49915;BME280;35806;47.958;13.158;2022-11-20T21:26:13;93931.79;;;1.89;58.00
49915;BME280;35806;47.958;13.158;2022-11-20T21:28:40;93925.93;;;1.47;58.71
49915;BME280;35806;47.958;13.158;2022-11-20T21:31:09;93922.24;;;2.38;57.92
49915;BME280;35806;47.958;13.158;2022-11-20T21:33:38;93924.43;;;1.82;58.26
49915;BME280;35806;47.958;13.158;2022-11-20T21:36:06;93920.72;;;2.33;57.73
49915;BME280;35806;47.958;13.158;2022-11-20T21:38:34;93912.59;;;2.34;57.43
49915;BME280;35806;47.958;13.158;2022-11-20T21:41:03;93905.09;;;2.34;58.13
49915;BME280;35806;47.958;13.158;2022-11-20T21:43:31;93901.78;;;2.65;57.80
49915;BME280;35806;47.958;13.158;2022-11-20T21:46:00;93903.61;;;2.08;58.39